createdAt,value
2023-10-30T00:01:39.890Z,99346.80
2023-10-30T00:04:14.430Z,99364.80
2023-10-30T00:06:48.866Z,99355.00
2023-10-30T00:09:24.734Z,99346.00
2023-10-30T00:12:00.317Z,99362.00
2023-10-30T00:14:35.896Z,99359.00
2023-10-30T00:17:10.605Z,99350.80
2023-10-30T00:19:45.412Z,99370.40
2023-10-30T00:22:19.728Z,99356.60
2023-10-30T00:24:54.094Z,99354.20
2023-10-30T00:27:28.405Z,99349.40
2023-10-30T00:30:03.025Z,99368.00
2023-10-30T00:32:37.335Z,99383.60
2023-10-30T00:35:13.216Z,99376.00
2023-10-30T00:37:47.562Z,99380.40
2023-10-30T00:40:23.253Z,99372.20
2023-10-30T00:42:58.514Z,99353.20
2023-10-30T00:45:33.339Z,99365.80
2023-10-30T00:48:08.827Z,99376.20
2023-10-30T00:50:43.248Z,99372.80
2023-10-30T00:53:18.670Z,99380.00
2023-10-30T00:55:57.729Z,99388.80
2023-10-30T00:58:32.113Z,99371.00
2023-10-30T01:01:06.753Z,99357.00
2023-10-30T01:03:41.260Z,99363.60
2023-10-30T01:06:15.766Z,99354.60
2023-10-30T01:08:50.137Z,99348.20
2023-10-30T01:11:24.494Z,99351.80
2023-10-30T01:13:58.812Z,99346.60
2023-10-30T01:16:33.237Z,99353.20
2023-10-30T01:19:07.712Z,99342.00
2023-10-30T01:21:43.295Z,99347.00
2023-10-30T01:24:17.672Z,99352.80
2023-10-30T01:26:52.043Z,99349.60
2023-10-30T01:29:26.424Z,99350.20
2023-10-30T01:32:01.304Z,99350.40
2023-10-30T01:34:35.871Z,99344.80
2023-10-30T01:37:11.030Z,99349.00
2023-10-30T01:39:45.591Z,99347.00
2023-10-30T01:42:20.823Z,99341.80
2023-10-30T01:45:02.839Z,99332.20
2023-10-30T01:47:37.321Z,99331.80
2023-10-30T01:50:15.424Z,99328.00
2023-10-30T01:52:50.382Z,99330.00
2023-10-30T01:55:25.182Z,99327.40
2023-10-30T01:58:01.427Z,99323.40
2023-10-30T02:00:37.014Z,99331.20
2023-10-30T02:03:11.833Z,99331.00
2023-10-30T02:05:47.462Z,99323.60
2023-10-30T02:08:23.174Z,99319.20
2023-10-30T02:10:57.924Z,99310.60
2023-10-30T02:13:32.259Z,99308.20
2023-10-30T02:16:07.710Z,99310.80
2023-10-30T02:18:42.375Z,99325.80
2023-10-30T02:21:18.797Z,99334.20
2023-10-30T02:23:54.874Z,99337.40
2023-10-30T02:26:29.216Z,99336.00
2023-10-30T02:29:04.415Z,99335.80
2023-10-30T02:31:38.685Z,99343.60
2023-10-30T02:34:14.877Z,99352.60
2023-10-30T02:36:49.187Z,99350.40
2023-10-30T02:39:23.603Z,99350.00
2023-10-30T02:41:58.344Z,99340.00
2023-10-30T02:44:33.029Z,99337.20
2023-10-30T02:47:07.445Z,99346.40
2023-10-30T02:49:41.955Z,99354.60
2023-10-30T02:52:16.228Z,99362.80
2023-10-30T02:54:50.736Z,99360.00
2023-10-30T02:57:25.092Z,99363.00
2023-10-30T02:59:59.495Z,99355.60
2023-10-30T03:02:33.916Z,99352.60
2023-10-30T03:05:09.968Z,99357.40
2023-10-30T03:07:45.265Z,99361.00
2023-10-30T03:10:20.400Z,99361.20
2023-10-30T03:12:54.838Z,99367.80
2023-10-30T03:15:30.142Z,99372.40
2023-10-30T03:18:05.790Z,99386.20
2023-10-30T03:20:40.219Z,99392.20
2023-10-30T03:23:15.388Z,99391.80
2023-10-30T03:25:49.966Z,99391.60
2023-10-30T03:28:24.385Z,99392.00
2023-10-30T03:31:06.024Z,99395.60
2023-10-30T03:33:40.563Z,99390.20
2023-10-30T03:36:25.420Z,99392.40
2023-10-30T03:38:59.785Z,99396.60
2023-10-30T03:41:34.300Z,99395.00
2023-10-30T03:44:10.056Z,99393.20
2023-10-30T03:46:44.470Z,99385.00
2023-10-30T03:49:18.756Z,99387.60
2023-10-30T03:51:53.103Z,99391.60
2023-10-30T03:54:27.549Z,99392.60
2023-10-30T03:57:01.781Z,99393.20
2023-10-30T03:59:36.891Z,99399.60
2023-10-30T04:02:11.514Z,99402.20
2023-10-30T04:04:45.816Z,99395.80
2023-10-30T04:07:20.769Z,99392.20
2023-10-30T04:09:55.673Z,99400.60
2023-10-30T04:12:32.234Z,99410.80
2023-10-30T04:15:09.284Z,99415.40
2023-10-30T04:17:44.064Z,99417.40
2023-10-30T04:20:18.782Z,99419.20
2023-10-30T04:22:53.052Z,99433.60
2023-10-30T04:25:27.546Z,99432.40
2023-10-30T04:28:01.825Z,99431.60
2023-10-30T04:30:36.795Z,99435.40
2023-10-30T04:33:11.178Z,99436.00
2023-10-30T04:35:45.470Z,99444.40
2023-10-30T04:38:19.641Z,99444.40
2023-10-30T04:40:53.969Z,99440.80
2023-10-30T04:43:28.546Z,99437.80
2023-10-30T04:46:03.086Z,99443.40
2023-10-30T04:48:37.564Z,99446.80
2023-10-30T04:51:12.326Z,99445.20
2023-10-30T04:53:46.619Z,99446.60
2023-10-30T04:56:20.987Z,99450.20
2023-10-30T04:58:55.312Z,99445.40
2023-10-30T05:01:29.548Z,99447.40
2023-10-30T05:04:06.000Z,99455.40
2023-10-30T05:06:40.467Z,99455.80
2023-10-30T05:09:15.591Z,99454.60
2023-10-30T05:11:50.089Z,99452.00
2023-10-30T05:14:25.337Z,99453.00
2023-10-30T05:16:59.895Z,99454.40
2023-10-30T05:19:34.896Z,99447.80
2023-10-30T05:22:10.292Z,99445.20
2023-10-30T05:24:45.395Z,99452.80
2023-10-30T05:27:20.176Z,99454.20
2023-10-30T05:29:54.850Z,99451.20
2023-10-30T05:32:29.555Z,99452.00
2023-10-30T05:35:04.251Z,99457.00
2023-10-30T05:37:38.951Z,99460.80
2023-10-30T05:40:16.196Z,99463.20
2023-10-30T05:42:51.093Z,99465.00
2023-10-30T05:45:25.901Z,99462.40
2023-10-30T05:48:00.693Z,99461.60
2023-10-30T05:50:35.527Z,99460.80
2023-10-30T05:53:13.111Z,99462.60
2023-10-30T05:55:47.890Z,99461.00
2023-10-30T05:58:22.510Z,99455.60
2023-10-30T06:00:57.156Z,99448.60
2023-10-30T06:03:31.940Z,99427.40
2023-10-30T06:06:07.960Z,99425.00
2023-10-30T06:08:42.544Z,99442.40
2023-10-30T06:11:17.559Z,99450.00
2023-10-30T06:13:52.262Z,99447.80
2023-10-30T06:16:27.113Z,99469.40
2023-10-30T06:19:01.962Z,99470.80
2023-10-30T06:21:37.333Z,99475.20
2023-10-30T06:24:14.608Z,99482.00
2023-10-30T06:26:49.684Z,99487.20
2023-10-30T06:29:24.559Z,99491.00
2023-10-30T06:31:59.361Z,99494.60
2023-10-30T06:34:39.308Z,99497.80
2023-10-30T06:37:14.430Z,99499.80
2023-10-30T06:39:49.502Z,99498.20
2023-10-30T06:42:24.587Z,99500.00
2023-10-30T06:44:59.477Z,99486.00
2023-10-30T06:47:34.249Z,99475.60
2023-10-30T06:50:10.739Z,99484.00
2023-10-30T06:52:46.712Z,99489.40
2023-10-30T06:55:21.617Z,99490.60
2023-10-30T06:57:56.254Z,99492.60
2023-10-30T07:00:31.269Z,99496.00
2023-10-30T07:03:06.454Z,99502.00
2023-10-30T07:05:41.422Z,99495.60
2023-10-30T07:08:16.134Z,99499.60
2023-10-30T07:10:50.716Z,99504.60
2023-10-30T07:13:25.699Z,99497.80
2023-10-30T07:16:00.594Z,99499.00
2023-10-30T07:18:35.349Z,99493.40
2023-10-30T07:21:10.348Z,99494.40
2023-10-30T07:23:46.564Z,99494.40
2023-10-30T07:26:22.446Z,99497.00
2023-10-30T07:28:57.417Z,99489.60
2023-10-30T07:31:31.905Z,99477.20
2023-10-30T07:34:06.679Z,99475.60
2023-10-30T07:36:41.122Z,99466.20
2023-10-30T07:39:16.211Z,99470.20
2023-10-30T07:41:50.978Z,99476.40
2023-10-30T07:44:25.766Z,99483.40
2023-10-30T07:47:00.328Z,99497.20
2023-10-30T07:49:35.224Z,99503.00
2023-10-30T07:52:10.190Z,99510.80
2023-10-30T07:54:44.787Z,99513.00
2023-10-30T07:57:19.562Z,99514.60
2023-10-30T07:59:54.169Z,99526.80
2023-10-30T08:02:28.716Z,99533.40
2023-10-30T08:05:03.481Z,99526.80
2023-10-30T08:07:38.130Z,99528.60
2023-10-30T08:10:14.253Z,99536.00
2023-10-30T08:12:49.956Z,99540.20
2023-10-30T08:15:24.645Z,99541.40
2023-10-30T08:17:59.511Z,99536.80
2023-10-30T08:20:34.466Z,99538.20
2023-10-30T08:23:09.075Z,99541.80
2023-10-30T08:25:44.170Z,99532.20
2023-10-30T08:28:18.805Z,99537.00
2023-10-30T08:30:53.544Z,99540.20
2023-10-30T08:33:30.350Z,99532.60
2023-10-30T08:36:06.185Z,99535.20
2023-10-30T08:38:42.038Z,99538.00
2023-10-30T08:41:20.715Z,99539.20
2023-10-30T08:43:55.445Z,99546.40
2023-10-30T08:46:30.801Z,99549.20
2023-10-30T08:49:05.865Z,99546.00
2023-10-30T08:51:53.729Z,99542.20
2023-10-30T08:54:36.089Z,99539.20
2023-10-30T08:57:17.624Z,99538.40
2023-10-30T08:59:52.860Z,99541.60
2023-10-30T09:02:27.836Z,99541.20
2023-10-30T09:05:03.075Z,99533.80
2023-10-30T09:07:37.814Z,99530.60
2023-10-30T09:10:13.845Z,99530.00
2023-10-30T09:12:49.113Z,99529.60
2023-10-30T09:15:25.236Z,99529.80
2023-10-30T09:17:59.887Z,99530.40
2023-10-30T09:20:34.576Z,99537.20
2023-10-30T09:23:09.599Z,99543.60
2023-10-30T09:25:44.389Z,99537.60
2023-10-30T09:28:19.379Z,99523.20
2023-10-30T09:30:56.609Z,99515.80
2023-10-30T09:33:31.394Z,99509.40
2023-10-30T09:36:08.136Z,99510.60
2023-10-30T09:38:43.771Z,99510.40
2023-10-30T09:41:22.174Z,99506.00
2023-10-30T09:43:59.395Z,99505.60
2023-10-30T09:46:36.425Z,99503.60
2023-10-30T09:49:16.309Z,99501.80
2023-10-30T09:51:54.303Z,99497.60
2023-10-30T09:54:29.986Z,99491.20
2023-10-30T09:57:09.866Z,99489.60
2023-10-30T09:59:53.633Z,99491.20
2023-10-30T10:02:28.566Z,99496.20
2023-10-30T10:05:04.118Z,99503.40
2023-10-30T10:07:38.727Z,99509.40
2023-10-30T10:10:19.453Z,99505.00
2023-10-30T10:13:01.257Z,99507.20
2023-10-30T10:15:36.959Z,99508.00
2023-10-30T10:18:27.476Z,99504.20
2023-10-30T10:21:09.505Z,99495.80
2023-10-30T10:23:47.186Z,99490.20
2023-10-30T10:26:30.984Z,99489.80
2023-10-30T10:29:05.926Z,99485.20
2023-10-30T10:31:45.520Z,99481.00
2023-10-30T10:34:20.318Z,99468.60
2023-10-30T10:37:00.164Z,99474.00
2023-10-30T10:39:53.116Z,99473.20
2023-10-30T10:42:30.432Z,99462.80
2023-10-30T10:45:07.949Z,99461.40
2023-10-30T10:47:42.647Z,99463.40
2023-10-30T10:50:19.344Z,99451.60
2023-10-30T10:52:56.470Z,99451.20
2023-10-30T10:55:36.602Z,99447.40
2023-10-30T10:58:18.729Z,99442.00
2023-10-30T11:00:55.919Z,99438.40
2023-10-30T11:03:30.483Z,99437.40
2023-10-30T11:06:07.678Z,99443.80
2023-10-30T11:08:57.186Z,99441.00
2023-10-30T11:11:40.290Z,99439.80
2023-10-30T11:14:34.189Z,99440.00
2023-10-30T11:17:09.689Z,99443.20
2023-10-30T11:19:47.308Z,99440.20
2023-10-30T11:22:45.714Z,99429.80
2023-10-30T11:25:56.906Z,99421.60
2023-10-30T11:28:37.267Z,99417.00
2023-10-30T11:31:53.331Z,99421.20
2023-10-30T11:34:53.120Z,99422.40
2023-10-30T11:37:38.825Z,99421.20
2023-10-30T11:40:19.842Z,99424.20
2023-10-30T11:43:02.403Z,99428.00
2023-10-30T11:45:41.279Z,99425.60
2023-10-30T11:48:17.110Z,99426.20
2023-10-30T11:50:56.199Z,99418.00
2023-10-30T11:53:32.097Z,99416.60
2023-10-30T11:56:09.970Z,99418.20
2023-10-30T11:58:44.993Z,99415.00
2023-10-30T12:01:20.976Z,99411.60
2023-10-30T12:03:55.965Z,99413.80
2023-10-30T12:06:32.309Z,99404.60
2023-10-30T12:09:08.532Z,99406.80
2023-10-30T12:11:44.321Z,99400.20
2023-10-30T12:14:22.060Z,99395.80
2023-10-30T12:16:57.499Z,99397.80
2023-10-30T12:19:32.735Z,99395.20
2023-10-30T12:22:07.918Z,99394.20
2023-10-30T12:24:42.508Z,99386.60
2023-10-30T12:27:24.945Z,99383.80
2023-10-30T12:30:10.746Z,99383.60
2023-10-30T12:32:54.434Z,99386.00
2023-10-30T12:35:30.960Z,99384.60
2023-10-30T12:38:16.266Z,99382.40
2023-10-30T12:40:51.100Z,99374.00
2023-10-30T12:43:25.783Z,99363.40
2023-10-30T12:46:01.099Z,99360.80
2023-10-30T12:48:36.293Z,99358.80
2023-10-30T12:51:11.221Z,99366.40
2023-10-30T12:53:45.882Z,99367.60
2023-10-30T12:56:20.626Z,99375.00
2023-10-30T12:58:55.264Z,99373.20
2023-10-30T13:01:32.094Z,99383.00
2023-10-30T13:04:07.620Z,99380.60
2023-10-30T13:06:42.895Z,99380.20
2023-10-30T13:09:17.534Z,99371.80
2023-10-30T13:12:03.830Z,99371.80
2023-10-30T13:14:38.822Z,99374.00
2023-10-30T13:17:13.644Z,99370.60
2023-10-30T13:19:48.531Z,99370.80
2023-10-30T13:22:24.846Z,99373.80
2023-10-30T13:25:02.740Z,99371.20
2023-10-30T13:27:37.277Z,99370.80
2023-10-30T13:30:15.861Z,99373.40
2023-10-30T13:32:50.425Z,99369.40
2023-10-30T13:35:25.165Z,99376.20
2023-10-30T13:37:59.835Z,99369.00
2023-10-30T13:40:34.423Z,99373.80
2023-10-30T13:43:09.055Z,99372.60
2023-10-30T13:45:43.860Z,99367.80
2023-10-30T13:48:18.475Z,99362.20
2023-10-30T13:50:53.254Z,99354.20
2023-10-30T13:53:28.334Z,99353.40
2023-10-30T13:56:04.524Z,99352.60
2023-10-30T13:58:40.230Z,99351.20
2023-10-30T14:01:14.998Z,99357.20
2023-10-30T14:03:51.173Z,99355.00
2023-10-30T14:06:27.014Z,99350.00
2023-10-30T14:09:02.326Z,99352.60
2023-10-30T14:11:38.411Z,99350.60
2023-10-30T14:14:12.966Z,99349.40
2023-10-30T14:16:48.102Z,99347.20
2023-10-30T14:19:22.903Z,99344.60
2023-10-30T14:21:57.619Z,99344.60
2023-10-30T14:24:32.439Z,99350.20
2023-10-30T14:27:08.910Z,99352.40
2023-10-30T14:29:43.670Z,99344.20
2023-10-30T14:32:18.381Z,99347.00
2023-10-30T14:34:53.745Z,99347.60
2023-10-30T14:37:29.445Z,99340.40
2023-10-30T14:40:05.213Z,99339.60
2023-10-30T14:42:40.235Z,99347.00
2023-10-30T14:45:20.561Z,99337.40
2023-10-30T14:47:56.379Z,99338.20
2023-10-30T14:50:31.969Z,99332.80
2023-10-30T14:53:07.694Z,99330.00
2023-10-30T14:55:42.527Z,99332.40
2023-10-30T14:58:17.386Z,99329.40
2023-10-30T15:00:52.179Z,99331.40
2023-10-30T15:03:27.302Z,99326.00
2023-10-30T15:06:03.634Z,99325.20
2023-10-30T15:08:38.312Z,99323.20
2023-10-30T15:11:13.175Z,99324.80
2023-10-30T15:13:48.522Z,99330.60
2023-10-30T15:16:23.444Z,99323.80
2023-10-30T15:18:58.186Z,99321.60
2023-10-30T15:21:32.783Z,99323.20
2023-10-30T15:24:08.445Z,99320.20
2023-10-30T15:26:43.514Z,99317.40
2023-10-30T15:29:21.128Z,99307.20
2023-10-30T15:31:55.581Z,99298.20
2023-10-30T15:34:30.336Z,99297.00
2023-10-30T15:37:05.369Z,99299.40
2023-10-30T15:39:40.133Z,99313.80
2023-10-30T15:42:14.781Z,99309.60
2023-10-30T15:44:49.470Z,99308.60
2023-10-30T15:47:25.888Z,99290.60
2023-10-30T15:50:01.181Z,99286.80
2023-10-30T15:58:03.733Z,99284.20
2023-10-30T16:00:38.463Z,99287.40
2023-10-30T16:08:47.399Z,99285.60
2023-10-30T16:14:00.187Z,99282.20
2023-10-30T16:16:35.238Z,99268.60
2023-10-30T16:21:49.907Z,99271.60
2023-10-30T16:24:24.546Z,99278.80
2023-10-30T16:26:59.470Z,99269.80
2023-10-30T16:29:34.197Z,99271.20
2023-10-30T16:32:09.587Z,99270.80
2023-10-30T16:34:44.196Z,99266.40
2023-10-30T16:37:19.070Z,99276.20
2023-10-30T16:39:54.336Z,99288.40
2023-10-30T16:42:29.594Z,99290.00
2023-10-30T16:45:04.536Z,99291.80
2023-10-30T16:47:42.720Z,99280.60
2023-10-30T16:50:18.242Z,99286.80
2023-10-30T16:52:53.127Z,99286.80
2023-10-30T16:55:28.609Z,99281.40
2023-10-30T16:58:03.471Z,99278.20
2023-10-30T17:00:38.565Z,99275.80
2023-10-30T17:03:13.563Z,99265.20
2023-10-30T17:05:48.213Z,99256.20
2023-10-30T17:08:23.195Z,99252.20
2023-10-30T17:10:58.571Z,99255.80
2023-10-30T17:13:33.512Z,99264.60
2023-10-30T17:16:09.386Z,99260.00
2023-10-30T17:18:44.943Z,99262.80
2023-10-30T17:21:21.761Z,99256.80
2023-10-30T17:23:56.632Z,99248.80
2023-10-30T17:26:31.460Z,99248.60
2023-10-30T17:29:06.323Z,99246.00
2023-10-30T17:31:41.404Z,99251.40
2023-10-30T17:34:17.263Z,99246.20
2023-10-30T17:36:52.463Z,99243.60
2023-10-30T17:39:27.747Z,99240.40
2023-10-30T17:42:03.048Z,99238.00
2023-10-30T17:44:37.981Z,99237.40
2023-10-30T17:47:13.880Z,99238.80
2023-10-30T17:49:50.340Z,99240.00
2023-10-30T17:52:26.119Z,99230.60
2023-10-30T17:55:01.135Z,99221.00
2023-10-30T17:57:35.994Z,99221.20
2023-10-30T18:00:15.224Z,99218.40
2023-10-30T18:02:50.664Z,99218.40
2023-10-30T18:05:25.711Z,99214.80
2023-10-30T18:08:01.554Z,99211.60
2023-10-30T18:10:37.568Z,99206.80
2023-10-30T18:13:12.880Z,99197.60
2023-10-30T18:15:48.620Z,99196.60
2023-10-30T18:18:23.608Z,99197.60
2023-10-30T18:20:58.933Z,99190.60
2023-10-30T18:23:35.729Z,99192.40
2023-10-30T18:26:11.027Z,99194.40
2023-10-30T18:28:47.738Z,99185.20
2023-10-30T18:31:23.553Z,99188.00
2023-10-30T18:33:58.628Z,99180.40
2023-10-30T18:36:35.437Z,99174.20
2023-10-30T18:39:10.796Z,99177.40
2023-10-30T18:41:46.151Z,99169.40
2023-10-30T18:44:22.357Z,99174.60
2023-10-30T18:46:57.836Z,99170.40
2023-10-30T18:49:33.151Z,99170.60
2023-10-30T18:52:10.368Z,99170.40
2023-10-30T18:54:45.140Z,99165.00
2023-10-30T18:57:20.285Z,99165.60
2023-10-30T18:59:55.357Z,99162.40
2023-10-30T19:02:30.228Z,99163.80
2023-10-30T19:05:08.302Z,99156.80
2023-10-30T19:07:43.571Z,99157.00
2023-10-30T19:10:18.982Z,99149.20
2023-10-30T19:12:54.078Z,99151.20
2023-10-30T19:15:28.917Z,99150.80
2023-10-30T19:18:03.621Z,99150.40
2023-10-30T19:20:38.978Z,99139.80
2023-10-30T19:23:13.732Z,99143.20
2023-10-30T19:25:48.890Z,99142.20
2023-10-30T19:28:23.820Z,99139.00
2023-10-30T19:31:03.683Z,99129.20
2023-10-30T19:33:38.473Z,99122.80
2023-10-30T19:36:15.060Z,99121.20
2023-10-30T19:38:49.839Z,99111.80
2023-10-30T19:41:24.945Z,99108.00
2023-10-30T19:44:00.271Z,99106.40
2023-10-30T19:46:39.172Z,99091.40
2023-10-30T19:49:17.181Z,99090.80
2023-10-30T19:51:56.360Z,99106.60
2023-10-30T19:54:38.105Z,99086.00
2023-10-30T19:57:13.241Z,99074.80
2023-10-30T19:59:48.467Z,99070.60
2023-10-30T20:02:23.590Z,99070.40
2023-10-30T20:04:58.385Z,99058.00
2023-10-30T20:07:33.318Z,99047.40
2023-10-30T20:12:51.485Z,99047.40
2023-10-30T20:15:26.226Z,99044.40
2023-10-30T20:18:00.783Z,99038.00
2023-10-30T20:20:35.808Z,99028.20
2023-10-30T20:23:11.914Z,99008.40
2023-10-30T20:25:47.262Z,98998.00
2023-10-30T20:28:22.425Z,99009.20
2023-10-30T20:30:57.626Z,98998.80
2023-10-30T20:33:32.481Z,98991.20
2023-10-30T20:36:10.126Z,98993.20
2023-10-30T20:38:45.254Z,98985.80
2023-10-30T20:41:21.480Z,98981.00
2023-10-30T20:43:58.034Z,98977.60
2023-10-30T20:46:33.098Z,98977.80
2023-10-30T20:49:08.323Z,98966.80
2023-10-30T20:51:43.452Z,98960.40
2023-10-30T20:54:18.382Z,98958.00
2023-10-30T20:56:53.469Z,98956.40
2023-10-30T20:59:28.828Z,98953.80
2023-10-30T21:02:04.612Z,98950.40
2023-10-30T21:04:39.776Z,98945.00
2023-10-30T21:07:14.956Z,98939.00
2023-10-30T21:09:52.705Z,98934.00
2023-10-30T21:12:27.536Z,98927.40
2023-10-30T21:15:02.618Z,98918.00
2023-10-30T21:17:37.957Z,98901.80
2023-10-30T21:20:14.588Z,98904.00
2023-10-30T21:22:52.356Z,98902.40
2023-10-30T21:25:28.532Z,98903.80
2023-10-30T21:28:03.583Z,98895.20
2023-10-30T21:30:38.577Z,98898.80
2023-10-30T21:33:13.831Z,98890.60
2023-10-30T21:35:49.251Z,98878.00
2023-10-30T21:38:24.962Z,98868.20
2023-10-30T21:41:00.818Z,98866.40
2023-10-30T21:43:35.865Z,98862.60
2023-10-30T21:46:11.554Z,98856.40
2023-10-30T21:48:46.325Z,98849.00
2023-10-30T21:51:21.752Z,98839.40
2023-10-30T21:54:00.323Z,98835.40
2023-10-30T21:56:35.801Z,98831.60
2023-10-30T21:59:10.507Z,98823.80
2023-10-30T22:01:46.263Z,98819.40
2023-10-30T22:04:21.676Z,98813.80
2023-10-30T22:06:57.574Z,98806.00
2023-10-30T22:09:34.627Z,98797.60
2023-10-30T22:12:10.730Z,98801.60
2023-10-30T22:14:45.332Z,98792.80
2023-10-30T22:17:20.054Z,98788.60
2023-10-30T22:19:55.690Z,98781.00
2023-10-30T22:22:31.018Z,98775.00
2023-10-30T22:25:06.236Z,98772.20
2023-10-30T22:27:41.067Z,98767.60
2023-10-30T22:30:17.739Z,98764.80
2023-10-30T22:32:52.653Z,98761.00
2023-10-30T22:35:27.463Z,98763.00
2023-10-30T22:38:02.015Z,98752.80
2023-10-30T22:40:36.703Z,98745.20
2023-10-30T22:43:11.241Z,98737.20
2023-10-30T22:45:47.356Z,98731.80
2023-10-30T22:48:21.683Z,98726.60
2023-10-30T22:50:56.020Z,98719.40
2023-10-30T22:53:30.570Z,98714.20
2023-10-30T22:56:05.900Z,98711.80
2023-10-30T22:58:40.174Z,98712.20
2023-10-30T23:01:14.742Z,98712.20
2023-10-30T23:03:49.489Z,98713.60
2023-10-30T23:06:23.809Z,98711.20
2023-10-30T23:08:58.268Z,98715.00
2023-10-30T23:11:33.279Z,98708.80
2023-10-30T23:14:08.052Z,98702.40
2023-10-30T23:16:42.401Z,98697.60
2023-10-30T23:19:16.735Z,98697.80
2023-10-30T23:21:52.880Z,98695.40
2023-10-30T23:24:27.564Z,98688.20
2023-10-30T23:27:02.051Z,98676.80
2023-10-30T23:29:37.030Z,98677.60
2023-10-30T23:32:12.523Z,98677.40
2023-10-30T23:34:47.430Z,98674.40
2023-10-30T23:37:22.232Z,98668.00
2023-10-30T23:39:56.732Z,98665.60
2023-10-30T23:42:31.276Z,98654.80
2023-10-30T23:45:07.189Z,98649.00
2023-10-30T23:47:41.871Z,98640.40
2023-10-30T23:50:17.206Z,98631.20
2023-10-30T23:52:51.906Z,98622.40
2023-10-30T23:55:26.222Z,98619.40
2023-10-30T23:58:00.456Z,98613.40
